sensor_id;sensor_type;location;lat;lon;timestamp;temperature;humidity
12123;DHT22;6125;59.628;17.852;2023-12-28T00:01:18;-6.60;99.90
12123;DHT22;6125;59.628;17.852;2023-12-28T00:03:45;-6.60;99.90
12123;DHT22;6125;59.628;17.852;2023-12-28T00:06:13;-6.60;99.90
12123;DHT22;6125;59.628;17.852;2023-12-28T00:08:40;-6.50;99.90
12123;DHT22;6125;59.628;17.852;2023-12-28T00:11:08;-6.50;99.90
12123;DHT22;6125;59.628;17.852;2023-12-28T00:13:36;-6.50;99.90
12123;DHT22;6125;59.628;17.852;2023-12-28T00:16:04;-6.50;99.90
12123;DHT22;6125;59.628;17.852;2023-12-28T00:18:32;-6.40;99.90
12123;DHT22;6125;59.628;17.852;2023-12-28T00:20:59;-6.40;99.90
12123;DHT22;6125;59.628;17.852;2023-12-28T00:23:28;-6.40;99.90
12123;DHT22;6125;59.628;17.852;2023-12-28T00:25:55;-6.30;99.90
12123;DHT22;6125;59.628;17.852;2023-12-28T00:28:24;-6.30;99.90
12123;DHT22;6125;59.628;17.852;2023-12-28T00:30:52;-6.30;99.90
12123;DHT22;6125;59.628;17.852;2023-12-28T00:33:19;-6.20;99.90
12123;DHT22;6125;59.628;17.852;2023-12-28T00:35:48;-6.20;99.90
12123;DHT22;6125;59.628;17.852;2023-12-28T00:38:15;-6.20;99.90
12123;DHT22;6125;59.628;17.852;2023-12-28T00:40:44;-6.20;99.90
12123;DHT22;6125;59.628;17.852;2023-12-28T00:43:11;-6.20;99.90
12123;DHT22;6125;59.628;17.852;2023-12-28T00:45:38;-6.20;99.90
12123;DHT22;6125;59.628;17.852;2023-12-28T00:48:06;-6.20;99.90
12123;DHT22;6125;59.628;17.852;2023-12-28T00:50:33;-6.20;99.90
12123;DHT22;6125;59.628;17.852;2023-12-28T00:53:02;-6.10;99.90
12123;DHT22;6125;59.628;17.852;2023-12-28T00:55:31;-6.10;99.90
12123;DHT22;6125;59.628;17.852;2023-12-28T00:57:59;-6.10;99.90
12123;DHT22;6125;59.628;17.852;2023-12-28T01:00:26;-6.10;99.90
12123;DHT22;6125;59.628;17.852;2023-12-28T01:02:54;-6.10;99.90
12123;DHT22;6125;59.628;17.852;2023-12-28T01:05:21;-6.10;99.90
12123;DHT22;6125;59.628;17.852;2023-12-28T01:07:54;-6.10;99.90
12123;DHT22;6125;59.628;17.852;2023-12-28T01:10:22;-6.10;99.90
12123;DHT22;6125;59.628;17.852;2023-12-28T01:12:50;-6.10;99.90
12123;DHT22;6125;59.628;17.852;2023-12-28T01:15:17;-6.10;99.90
12123;DHT22;6125;59.628;17.852;2023-12-28T01:17:46;-6.10;99.90
12123;DHT22;6125;59.628;17.852;2023-12-28T01:20:13;-6.20;99.90
12123;DHT22;6125;59.628;17.852;2023-12-28T01:22:43;-6.10;99.90
12123;DHT22;6125;59.628;17.852;2023-12-28T01:25:10;-6.20;99.90
12123;DHT22;6125;59.628;17.852;2023-12-28T01:27:39;-6.20;99.90
12123;DHT22;6125;59.628;17.852;2023-12-28T01:30:07;-6.20;99.90
12123;DHT22;6125;59.628;17.852;2023-12-28T01:32:34;-6.20;99.90
12123;DHT22;6125;59.628;17.852;2023-12-28T01:35:02;-6.30;99.90
12123;DHT22;6125;59.628;17.852;2023-12-28T01:37:30;-6.30;99.90
12123;DHT22;6125;59.628;17.852;2023-12-28T01:39:59;-6.30;99.90
12123;DHT22;6125;59.628;17.852;2023-12-28T01:42:27;-6.30;99.90
12123;DHT22;6125;59.628;17.852;2023-12-28T01:44:59;-6.30;99.90
12123;DHT22;6125;59.628;17.852;2023-12-28T01:47:26;-6.20;99.90
12123;DHT22;6125;59.628;17.852;2023-12-28T01:49:55;-6.20;99.90
12123;DHT22;6125;59.628;17.852;2023-12-28T01:52:22;-6.30;99.90
12123;DHT22;6125;59.628;17.852;2023-12-28T01:54:52;-6.30;99.90
12123;DHT22;6125;59.628;17.852;2023-12-28T01:57:19;-6.30;99.90
12123;DHT22;6125;59.628;17.852;2023-12-28T01:59:47;-6.30;99.90
12123;DHT22;6125;59.628;17.852;2023-12-28T02:02:16;-6.20;99.90
12123;DHT22;6125;59.628;17.852;2023-12-28T02:04:44;-6.30;99.90
12123;DHT22;6125;59.628;17.852;2023-12-28T02:07:13;-6.30;99.90
12123;DHT22;6125;59.628;17.852;2023-12-28T02:09:41;-6.30;99.90
12123;DHT22;6125;59.628;17.852;2023-12-28T02:12:08;-6.30;99.90
12123;DHT22;6125;59.628;17.852;2023-12-28T02:14:36;-6.30;99.90
12123;DHT22;6125;59.628;17.852;2023-12-28T02:17:10;-6.20;99.90
12123;DHT22;6125;59.628;17.852;2023-12-28T02:19:45;-6.20;99.90
12123;DHT22;6125;59.628;17.852;2023-12-28T02:22:14;-6.20;99.90
12123;DHT22;6125;59.628;17.852;2023-12-28T02:25:04;-6.20;99.90
12123;DHT22;6125;59.628;17.852;2023-12-28T02:27:34;-6.20;99.90
12123;DHT22;6125;59.628;17.852;2023-12-28T02:30:03;-6.20;99.90
12123;DHT22;6125;59.628;17.852;2023-12-28T02:32:39;-6.10;99.90
12123;DHT22;6125;59.628;17.852;2023-12-28T02:35:17;-6.20;99.90
12123;DHT22;6125;59.628;17.852;2023-12-28T02:37:47;-6.10;99.90
12123;DHT22;6125;59.628;17.852;2023-12-28T02:40:17;-6.10;99.90
12123;DHT22;6125;59.628;17.852;2023-12-28T02:42:44;-6.10;99.90
12123;DHT22;6125;59.628;17.852;2023-12-28T02:45:12;-6.10;99.90
12123;DHT22;6125;59.628;17.852;2023-12-28T02:47:40;-6.10;99.90
12123;DHT22;6125;59.628;17.852;2023-12-28T02:50:08;-6.10;99.90
12123;DHT22;6125;59.628;17.852;2023-12-28T02:52:35;-6.10;99.90
12123;DHT22;6125;59.628;17.852;2023-12-28T02:55:02;-6.00;99.90
12123;DHT22;6125;59.628;17.852;2023-12-28T02:57:33;-6.00;99.90
12123;DHT22;6125;59.628;17.852;2023-12-28T03:00:05;-6.00;99.90
12123;DHT22;6125;59.628;17.852;2023-12-28T03:02:35;-6.00;99.90
12123;DHT22;6125;59.628;17.852;2023-12-28T03:05:03;-6.00;99.90
12123;DHT22;6125;59.628;17.852;2023-12-28T03:07:30;-5.90;99.90
12123;DHT22;6125;59.628;17.852;2023-12-28T03:09:58;-5.90;99.90
12123;DHT22;6125;59.628;17.852;2023-12-28T03:12:25;-5.90;99.90
12123;DHT22;6125;59.628;17.852;2023-12-28T03:14:53;-5.90;99.90
12123;DHT22;6125;59.628;17.852;2023-12-28T03:17:21;-5.90;99.90
12123;DHT22;6125;59.628;17.852;2023-12-28T03:19:48;-5.90;99.90
12123;DHT22;6125;59.628;17.852;2023-12-28T03:22:15;-5.90;99.90
12123;DHT22;6125;59.628;17.852;2023-12-28T03:24:43;-5.80;99.90
12123;DHT22;6125;59.628;17.852;2023-12-28T03:27:10;-5.80;99.90
12123;DHT22;6125;59.628;17.852;2023-12-28T03:29:37;-5.80;99.90
12123;DHT22;6125;59.628;17.852;2023-12-28T03:32:06;-5.80;99.90
12123;DHT22;6125;59.628;17.852;2023-12-28T03:34:34;-5.70;99.90
12123;DHT22;6125;59.628;17.852;2023-12-28T03:37:01;-5.70;99.90
12123;DHT22;6125;59.628;17.852;2023-12-28T03:39:28;-5.70;99.90
12123;DHT22;6125;59.628;17.852;2023-12-28T03:41:56;-5.70;99.90
12123;DHT22;6125;59.628;17.852;2023-12-28T03:44:23;-5.70;99.90
12123;DHT22;6125;59.628;17.852;2023-12-28T03:46:50;-5.60;99.90
12123;DHT22;6125;59.628;17.852;2023-12-28T03:49:20;-5.60;99.90
12123;DHT22;6125;59.628;17.852;2023-12-28T03:51:50;-5.60;99.90
12123;DHT22;6125;59.628;17.852;2023-12-28T03:54:17;-5.60;99.90
12123;DHT22;6125;59.628;17.852;2023-12-28T03:56:46;-5.60;99.90
12123;DHT22;6125;59.628;17.852;2023-12-28T03:59:13;-5.60;99.90
12123;DHT22;6125;59.628;17.852;2023-12-28T04:01:42;-5.60;99.90
12123;DHT22;6125;59.628;17.852;2023-12-28T04:04:09;-5.60;99.90
12123;DHT22;6125;59.628;17.852;2023-12-28T04:06:38;-5.60;99.90
12123;DHT22;6125;59.628;17.852;2023-12-28T04:09:05;-5.60;99.90
12123;DHT22;6125;59.628;17.852;2023-12-28T04:11:32;-5.60;99.90
12123;DHT22;6125;59.628;17.852;2023-12-28T04:14:00;-5.60;99.90
12123;DHT22;6125;59.628;17.852;2023-12-28T04:16:27;-5.60;99.90
12123;DHT22;6125;59.628;17.852;2023-12-28T04:18:54;-5.50;99.90
12123;DHT22;6125;59.628;17.852;2023-12-28T04:21:21;-5.50;99.90
12123;DHT22;6125;59.628;17.852;2023-12-28T04:23:52;-5.50;99.90
12123;DHT22;6125;59.628;17.852;2023-12-28T04:26:19;-5.50;99.90
12123;DHT22;6125;59.628;17.852;2023-12-28T04:28:47;-5.50;99.90
12123;DHT22;6125;59.628;17.852;2023-12-28T04:31:15;-5.50;99.90
12123;DHT22;6125;59.628;17.852;2023-12-28T04:33:42;-5.50;99.90
12123;DHT22;6125;59.628;17.852;2023-12-28T04:36:09;-5.50;99.90
12123;DHT22;6125;59.628;17.852;2023-12-28T04:38:38;-5.50;99.90
12123;DHT22;6125;59.628;17.852;2023-12-28T04:41:09;-5.50;99.90
12123;DHT22;6125;59.628;17.852;2023-12-28T04:43:36;-5.50;99.90
12123;DHT22;6125;59.628;17.852;2023-12-28T04:46:04;-5.40;99.90
12123;DHT22;6125;59.628;17.852;2023-12-28T04:48:32;-5.40;99.90
12123;DHT22;6125;59.628;17.852;2023-12-28T04:51:02;-5.40;99.90
12123;DHT22;6125;59.628;17.852;2023-12-28T04:53:30;-5.40;99.90
12123;DHT22;6125;59.628;17.852;2023-12-28T04:56:00;-5.30;99.90
12123;DHT22;6125;59.628;17.852;2023-12-28T04:58:29;-5.30;99.90
12123;DHT22;6125;59.628;17.852;2023-12-28T05:00:57;-5.30;99.90
12123;DHT22;6125;59.628;17.852;2023-12-28T05:03:25;-5.30;99.90
12123;DHT22;6125;59.628;17.852;2023-12-28T05:05:52;-5.20;99.90
12123;DHT22;6125;59.628;17.852;2023-12-28T05:08:20;-5.20;99.90
12123;DHT22;6125;59.628;17.852;2023-12-28T05:10:47;-5.20;99.90
12123;DHT22;6125;59.628;17.852;2023-12-28T05:13:18;-5.20;99.90
12123;DHT22;6125;59.628;17.852;2023-12-28T05:15:46;-5.10;99.90
12123;DHT22;6125;59.628;17.852;2023-12-28T05:18:14;-5.10;99.90
12123;DHT22;6125;59.628;17.852;2023-12-28T05:20:42;-5.10;99.90
12123;DHT22;6125;59.628;17.852;2023-12-28T05:23:09;-5.10;99.90
12123;DHT22;6125;59.628;17.852;2023-12-28T05:25:37;-5.00;99.90
12123;DHT22;6125;59.628;17.852;2023-12-28T05:28:04;-5.00;99.90
12123;DHT22;6125;59.628;17.852;2023-12-28T05:30:31;-5.00;99.90
12123;DHT22;6125;59.628;17.852;2023-12-28T05:33:00;-5.00;99.90
12123;DHT22;6125;59.628;17.852;2023-12-28T05:35:27;-5.00;99.90
12123;DHT22;6125;59.628;17.852;2023-12-28T05:37:56;-5.00;99.90
12123;DHT22;6125;59.628;17.852;2023-12-28T05:40:23;-5.10;99.90
12123;DHT22;6125;59.628;17.852;2023-12-28T05:42:50;-5.10;99.90
12123;DHT22;6125;59.628;17.852;2023-12-28T05:45:17;-5.10;99.90
12123;DHT22;6125;59.628;17.852;2023-12-28T05:47:44;-5.10;99.90
12123;DHT22;6125;59.628;17.852;2023-12-28T05:50:13;-5.10;99.90
12123;DHT22;6125;59.628;17.852;2023-12-28T05:52:41;-5.10;99.90
12123;DHT22;6125;59.628;17.852;2023-12-28T05:55:10;-5.00;99.90
12123;DHT22;6125;59.628;17.852;2023-12-28T05:57:37;-5.00;99.90
12123;DHT22;6125;59.628;17.852;2023-12-28T06:00:07;-4.90;99.90
12123;DHT22;6125;59.628;17.852;2023-12-28T06:02:36;-4.90;99.90
12123;DHT22;6125;59.628;17.852;2023-12-28T06:05:04;-4.90;99.90
12123;DHT22;6125;59.628;17.852;2023-12-28T06:07:34;-4.80;99.90
12123;DHT22;6125;59.628;17.852;2023-12-28T06:10:01;-4.80;99.90
12123;DHT22;6125;59.628;17.852;2023-12-28T06:12:28;-4.80;99.90
12123;DHT22;6125;59.628;17.852;2023-12-28T06:14:55;-4.70;99.90
12123;DHT22;6125;59.628;17.852;2023-12-28T06:17:22;-4.70;99.90
12123;DHT22;6125;59.628;17.852;2023-12-28T06:19:50;-4.70;99.90
12123;DHT22;6125;59.628;17.852;2023-12-28T06:22:20;-4.70;99.90
12123;DHT22;6125;59.628;17.852;2023-12-28T06:24:49;-4.60;99.90
12123;DHT22;6125;59.628;17.852;2023-12-28T06:27:16;-4.60;99.90
12123;DHT22;6125;59.628;17.852;2023-12-28T06:29:43;-4.60;99.90
12123;DHT22;6125;59.628;17.852;2023-12-28T06:32:12;-4.60;99.90
12123;DHT22;6125;59.628;17.852;2023-12-28T06:34:39;-4.60;99.90
12123;DHT22;6125;59.628;17.852;2023-12-28T06:37:08;-4.60;99.90
12123;DHT22;6125;59.628;17.852;2023-12-28T06:39:35;-4.50;99.90
12123;DHT22;6125;59.628;17.852;2023-12-28T06:42:04;-4.50;99.90
12123;DHT22;6125;59.628;17.852;2023-12-28T06:44:31;-4.50;99.90
12123;DHT22;6125;59.628;17.852;2023-12-28T06:46:58;-4.50;99.90
12123;DHT22;6125;59.628;17.852;2023-12-28T06:49:26;-4.50;99.90
12123;DHT22;6125;59.628;17.852;2023-12-28T06:51:53;-4.50;99.90
12123;DHT22;6125;59.628;17.852;2023-12-28T06:54:21;-4.40;99.90
12123;DHT22;6125;59.628;17.852;2023-12-28T06:56:50;-4.40;99.90
12123;DHT22;6125;59.628;17.852;2023-12-28T06:59:20;-4.40;99.90
12123;DHT22;6125;59.628;17.852;2023-12-28T07:01:47;-4.40;99.90
12123;DHT22;6125;59.628;17.852;2023-12-28T07:04:16;-4.40;99.90
12123;DHT22;6125;59.628;17.852;2023-12-28T07:06:43;-4.40;99.90
12123;DHT22;6125;59.628;17.852;2023-12-28T07:09:11;-4.30;99.90
12123;DHT22;6125;59.628;17.852;2023-12-28T07:11:38;-4.30;99.90
12123;DHT22;6125;59.628;17.852;2023-12-28T07:14:07;-4.20;99.90
12123;DHT22;6125;59.628;17.852;2023-12-28T07:16:36;-4.30;99.90
12123;DHT22;6125;59.628;17.852;2023-12-28T07:19:03;-4.30;99.90
12123;DHT22;6125;59.628;17.852;2023-12-28T07:21:31;-4.30;99.90
12123;DHT22;6125;59.628;17.852;2023-12-28T07:23:59;-4.20;99.90
12123;DHT22;6125;59.628;17.852;2023-12-28T07:26:26;-4.20;99.90
12123;DHT22;6125;59.628;17.852;2023-12-28T07:28:53;-4.20;99.90
12123;DHT22;6125;59.628;17.852;2023-12-28T07:31:23;-4.10;99.90
12123;DHT22;6125;59.628;17.852;2023-12-28T07:33:52;-4.10;99.90
12123;DHT22;6125;59.628;17.852;2023-12-28T07:36:19;-4.00;99.90
12123;DHT22;6125;59.628;17.852;2023-12-28T07:38:47;-4.00;99.90
12123;DHT22;6125;59.628;17.852;2023-12-28T07:41:15;-3.90;99.90
12123;DHT22;6125;59.628;17.852;2023-12-28T07:43:43;-3.90;99.90
12123;DHT22;6125;59.628;17.852;2023-12-28T07:46:10;-3.80;99.90
12123;DHT22;6125;59.628;17.852;2023-12-28T07:48:38;-3.70;99.90
12123;DHT22;6125;59.628;17.852;2023-12-28T07:51:08;-3.60;99.90
12123;DHT22;6125;59.628;17.852;2023-12-28T07:53:36;-3.60;99.90
12123;DHT22;6125;59.628;17.852;2023-12-28T07:56:03;-3.50;99.90
12123;DHT22;6125;59.628;17.852;2023-12-28T07:58:33;-3.40;99.90
12123;DHT22;6125;59.628;17.852;2023-12-28T08:01:03;-3.40;99.90
12123;DHT22;6125;59.628;17.852;2023-12-28T08:03:33;-3.30;99.90
12123;DHT22;6125;59.628;17.852;2023-12-28T08:06:00;-3.30;99.90
12123;DHT22;6125;59.628;17.852;2023-12-28T08:08:29;-3.30;99.90
12123;DHT22;6125;59.628;17.852;2023-12-28T08:10:56;-3.20;99.90
12123;DHT22;6125;59.628;17.852;2023-12-28T08:13:26;-3.20;99.90
12123;DHT22;6125;59.628;17.852;2023-12-28T08:15:54;-3.20;99.90
12123;DHT22;6125;59.628;17.852;2023-12-28T08:18:21;-3.10;99.90
12123;DHT22;6125;59.628;17.852;2023-12-28T08:20:49;-3.10;99.90
12123;DHT22;6125;59.628;17.852;2023-12-28T08:23:19;-3.00;99.90
12123;DHT22;6125;59.628;17.852;2023-12-28T08:25:48;-3.00;99.90
12123;DHT22;6125;59.628;17.852;2023-12-28T08:28:15;-2.90;99.90
12123;DHT22;6125;59.628;17.852;2023-12-28T08:30:43;-2.90;99.90
12123;DHT22;6125;59.628;17.852;2023-12-28T08:33:10;-2.80;99.90
12123;DHT22;6125;59.628;17.852;2023-12-28T08:35:44;-2.80;99.90
12123;DHT22;6125;59.628;17.852;2023-12-28T08:38:19;-2.70;99.90
12123;DHT22;6125;59.628;17.852;2023-12-28T08:40:51;-2.70;99.90
12123;DHT22;6125;59.628;17.852;2023-12-28T08:43:18;-2.60;99.90
12123;DHT22;6125;59.628;17.852;2023-12-28T08:45:45;-2.60;99.90
12123;DHT22;6125;59.628;17.852;2023-12-28T08:48:13;-2.50;99.90
12123;DHT22;6125;59.628;17.852;2023-12-28T08:50:40;-2.50;99.90
12123;DHT22;6125;59.628;17.852;2023-12-28T08:53:10;-2.40;99.90
12123;DHT22;6125;59.628;17.852;2023-12-28T08:55:37;-2.40;99.90
12123;DHT22;6125;59.628;17.852;2023-12-28T08:58:05;-2.30;99.90
12123;DHT22;6125;59.628;17.852;2023-12-28T09:00:34;-2.30;99.90
12123;DHT22;6125;59.628;17.852;2023-12-28T09:03:01;-2.20;99.90
12123;DHT22;6125;59.628;17.852;2023-12-28T09:05:28;-2.20;99.90
12123;DHT22;6125;59.628;17.852;2023-12-28T09:07:55;-2.20;99.90
12123;DHT22;6125;59.628;17.852;2023-12-28T09:10:23;-2.10;99.90
12123;DHT22;6125;59.628;17.852;2023-12-28T09:12:50;-2.10;99.90
12123;DHT22;6125;59.628;17.852;2023-12-28T09:15:18;-2.10;99.90
12123;DHT22;6125;59.628;17.852;2023-12-28T09:17:46;-2.00;99.90
12123;DHT22;6125;59.628;17.852;2023-12-28T09:20:13;-2.00;99.90
12123;DHT22;6125;59.628;17.852;2023-12-28T09:22:40;-2.00;99.90
12123;DHT22;6125;59.628;17.852;2023-12-28T09:25:08;-2.00;99.90
12123;DHT22;6125;59.628;17.852;2023-12-28T09:27:35;-2.00;99.90
12123;DHT22;6125;59.628;17.852;2023-12-28T09:30:06;-1.90;99.90
12123;DHT22;6125;59.628;17.852;2023-12-28T09:32:36;-1.90;99.90
12123;DHT22;6125;59.628;17.852;2023-12-28T09:35:04;-1.90;99.90
12123;DHT22;6125;59.628;17.852;2023-12-28T09:37:31;-1.80;99.90
12123;DHT22;6125;59.628;17.852;2023-12-28T09:39:58;-1.80;99.90
12123;DHT22;6125;59.628;17.852;2023-12-28T09:42:32;-1.70;99.90
12123;DHT22;6125;59.628;17.852;2023-12-28T09:45:01;-1.70;99.90
12123;DHT22;6125;59.628;17.852;2023-12-28T09:47:32;-1.70;99.90
12123;DHT22;6125;59.628;17.852;2023-12-28T09:50:00;-1.60;99.90
12123;DHT22;6125;59.628;17.852;2023-12-28T09:52:28;-1.60;99.90
12123;DHT22;6125;59.628;17.852;2023-12-28T09:54:57;-1.50;99.90
12123;DHT22;6125;59.628;17.852;2023-12-28T09:57:24;-1.50;99.90
12123;DHT22;6125;59.628;17.852;2023-12-28T09:59:52;-1.40;99.90
12123;DHT22;6125;59.628;17.852;2023-12-28T10:02:19;-1.40;99.90
12123;DHT22;6125;59.628;17.852;2023-12-28T10:04:47;-1.40;99.90
12123;DHT22;6125;59.628;17.852;2023-12-28T10:07:15;-1.30;99.90
12123;DHT22;6125;59.628;17.852;2023-12-28T10:09:42;-1.30;99.90
12123;DHT22;6125;59.628;17.852;2023-12-28T10:12:12;-1.20;99.90
12123;DHT22;6125;59.628;17.852;2023-12-28T10:14:42;-1.20;99.90
12123;DHT22;6125;59.628;17.852;2023-12-28T10:17:09;-1.20;99.90
12123;DHT22;6125;59.628;17.852;2023-12-28T10:19:38;-1.20;99.90
12123;DHT22;6125;59.628;17.852;2023-12-28T10:22:05;-1.20;99.90
12123;DHT22;6125;59.628;17.852;2023-12-28T10:24:43;-1.10;99.90
12123;DHT22;6125;59.628;17.852;2023-12-28T10:27:11;-1.10;99.90
12123;DHT22;6125;59.628;17.852;2023-12-28T10:29:39;-1.00;99.90
12123;DHT22;6125;59.628;17.852;2023-12-28T10:32:06;-1.00;99.90
12123;DHT22;6125;59.628;17.852;2023-12-28T10:34:35;-1.00;99.90
12123;DHT22;6125;59.628;17.852;2023-12-28T10:37:03;-1.00;99.90
12123;DHT22;6125;59.628;17.852;2023-12-28T10:39:33;-0.90;99.90
12123;DHT22;6125;59.628;17.852;2023-12-28T10:42:04;-1.00;99.90
12123;DHT22;6125;59.628;17.852;2023-12-28T10:44:38;-0.90;99.90
12123;DHT22;6125;59.628;17.852;2023-12-28T10:47:15;-0.80;99.90
12123;DHT22;6125;59.628;17.852;2023-12-28T10:49:44;-0.80;99.90
12123;DHT22;6125;59.628;17.852;2023-12-28T10:52:13;-0.70;99.90
12123;DHT22;6125;59.628;17.852;2023-12-28T10:54:51;-0.70;99.90
12123;DHT22;6125;59.628;17.852;2023-12-28T10:57:27;-0.60;99.90
12123;DHT22;6125;59.628;17.852;2023-12-28T11:00:02;-0.60;99.90
12123;DHT22;6125;59.628;17.852;2023-12-28T11:02:38;-0.50;99.90
12123;DHT22;6125;59.628;17.852;2023-12-28T11:05:05;-0.40;99.90
12123;DHT22;6125;59.628;17.852;2023-12-28T11:07:35;-0.30;99.90
12123;DHT22;6125;59.628;17.852;2023-12-28T11:10:06;-0.30;99.90
12123;DHT22;6125;59.628;17.852;2023-12-28T11:12:37;-0.20;99.90
12123;DHT22;6125;59.628;17.852;2023-12-28T11:15:16;-0.20;99.90
12123;DHT22;6125;59.628;17.852;2023-12-28T11:17:44;-0.20;99.90
12123;DHT22;6125;59.628;17.852;2023-12-28T11:20:15;-0.10;99.90
12123;DHT22;6125;59.628;17.852;2023-12-28T11:22:43;-0.10;99.90
12123;DHT22;6125;59.628;17.852;2023-12-28T11:25:21;0.00;99.90
12123;DHT22;6125;59.628;17.852;2023-12-28T11:27:48;0.00;99.90
12123;DHT22;6125;59.628;17.852;2023-12-28T11:30:17;0.00;99.90
12123;DHT22;6125;59.628;17.852;2023-12-28T11:32:44;0.10;99.90
12123;DHT22;6125;59.628;17.852;2023-12-28T11:35:13;0.10;99.90
12123;DHT22;6125;59.628;17.852;2023-12-28T11:37:42;0.10;99.90
12123;DHT22;6125;59.628;17.852;2023-12-28T11:40:16;0.20;99.90
12123;DHT22;6125;59.628;17.852;2023-12-28T11:42:52;0.20;99.90
12123;DHT22;6125;59.628;17.852;2023-12-28T11:45:21;0.30;99.90
12123;DHT22;6125;59.628;17.852;2023-12-28T11:47:58;0.30;99.90
12123;DHT22;6125;59.628;17.852;2023-12-28T11:50:26;0.40;99.90
12123;DHT22;6125;59.628;17.852;2023-12-28T11:52:53;0.40;99.90
12123;DHT22;6125;59.628;17.852;2023-12-28T11:55:21;0.40;99.90
12123;DHT22;6125;59.628;17.852;2023-12-28T11:57:50;0.50;99.90
12123;DHT22;6125;59.628;17.852;2023-12-28T12:00:18;0.50;99.90
12123;DHT22;6125;59.628;17.852;2023-12-28T12:02:46;0.50;99.90
12123;DHT22;6125;59.628;17.852;2023-12-28T12:05:14;0.60;99.90
12123;DHT22;6125;59.628;17.852;2023-12-28T12:07:42;0.60;99.90
12123;DHT22;6125;59.628;17.852;2023-12-28T12:10:14;0.60;99.90
12123;DHT22;6125;59.628;17.852;2023-12-28T12:12:42;0.70;99.90
12123;DHT22;6125;59.628;17.852;2023-12-28T12:15:12;0.70;99.90
12123;DHT22;6125;59.628;17.852;2023-12-28T12:17:39;0.70;99.90
12123;DHT22;6125;59.628;17.852;2023-12-28T12:20:08;0.70;99.90
12123;DHT22;6125;59.628;17.852;2023-12-28T12:22:36;0.70;99.90
12123;DHT22;6125;59.628;17.852;2023-12-28T12:25:04;0.70;99.90
12123;DHT22;6125;59.628;17.852;2023-12-28T12:27:32;0.70;99.90
12123;DHT22;6125;59.628;17.852;2023-12-28T12:29:59;0.70;99.90
12123;DHT22;6125;59.628;17.852;2023-12-28T12:32:28;0.80;99.90
12123;DHT22;6125;59.628;17.852;2023-12-28T12:34:55;0.70;99.90
12123;DHT22;6125;59.628;17.852;2023-12-28T12:37:23;0.70;99.90
12123;DHT22;6125;59.628;17.852;2023-12-28T12:39:50;0.80;99.90
12123;DHT22;6125;59.628;17.852;2023-12-28T12:42:18;0.70;99.90
12123;DHT22;6125;59.628;17.852;2023-12-28T12:44:46;0.80;99.90
12123;DHT22;6125;59.628;17.852;2023-12-28T12:47:16;0.80;99.90
12123;DHT22;6125;59.628;17.852;2023-12-28T12:49:44;0.80;99.90
12123;DHT22;6125;59.628;17.852;2023-12-28T12:52:12;0.80;99.90
12123;DHT22;6125;59.628;17.852;2023-12-28T12:54:39;0.80;99.90
12123;DHT22;6125;59.628;17.852;2023-12-28T12:57:08;0.80;99.90
12123;DHT22;6125;59.628;17.852;2023-12-28T12:59:35;0.80;99.90
12123;DHT22;6125;59.628;17.852;2023-12-28T13:02:08;0.80;99.90
12123;DHT22;6125;59.628;17.852;2023-12-28T13:04:37;0.80;99.90
12123;DHT22;6125;59.628;17.852;2023-12-28T13:07:06;0.80;99.90
12123;DHT22;6125;59.628;17.852;2023-12-28T13:09:33;0.90;99.90
12123;DHT22;6125;59.628;17.852;2023-12-28T13:12:00;0.90;99.90
12123;DHT22;6125;59.628;17.852;2023-12-28T13:14:29;0.90;99.90
12123;DHT22;6125;59.628;17.852;2023-12-28T13:16:56;0.90;99.90
12123;DHT22;6125;59.628;17.852;2023-12-28T13:19:23;0.90;99.90
12123;DHT22;6125;59.628;17.852;2023-12-28T13:21:52;0.90;99.90
12123;DHT22;6125;59.628;17.852;2023-12-28T13:24:20;0.90;99.90
12123;DHT22;6125;59.628;17.852;2023-12-28T13:26:48;0.90;99.90
12123;DHT22;6125;59.628;17.852;2023-12-28T13:29:15;0.90;99.90
12123;DHT22;6125;59.628;17.852;2023-12-28T13:31:42;1.00;99.90
12123;DHT22;6125;59.628;17.852;2023-12-28T13:34:15;1.00;99.90
12123;DHT22;6125;59.628;17.852;2023-12-28T13:36:44;1.00;99.90
12123;DHT22;6125;59.628;17.852;2023-12-28T13:39:11;1.00;99.90
12123;DHT22;6125;59.628;17.852;2023-12-28T13:41:41;1.00;99.90
12123;DHT22;6125;59.628;17.852;2023-12-28T13:44:09;1.00;99.90
12123;DHT22;6125;59.628;17.852;2023-12-28T13:46:38;1.00;99.90
12123;DHT22;6125;59.628;17.852;2023-12-28T13:49:05;1.10;99.90
12123;DHT22;6125;59.628;17.852;2023-12-28T13:51:33;1.10;99.90
12123;DHT22;6125;59.628;17.852;2023-12-28T13:54:00;1.10;99.90
12123;DHT22;6125;59.628;17.852;2023-12-28T13:56:27;1.10;99.90
12123;DHT22;6125;59.628;17.852;2023-12-28T13:58:56;1.20;99.90
12123;DHT22;6125;59.628;17.852;2023-12-28T14:01:23;1.10;99.90
12123;DHT22;6125;59.628;17.852;2023-12-28T14:03:51;1.10;99.90
12123;DHT22;6125;59.628;17.852;2023-12-28T14:06:18;1.10;99.90
12123;DHT22;6125;59.628;17.852;2023-12-28T14:08:46;1.20;99.90
12123;DHT22;6125;59.628;17.852;2023-12-28T14:11:13;1.10;99.90
12123;DHT22;6125;59.628;17.852;2023-12-28T14:13:40;1.10;99.90
12123;DHT22;6125;59.628;17.852;2023-12-28T14:16:09;1.20;99.90
12123;DHT22;6125;59.628;17.852;2023-12-28T14:18:36;1.20;99.90
12123;DHT22;6125;59.628;17.852;2023-12-28T14:21:05;1.20;99.90
12123;DHT22;6125;59.628;17.852;2023-12-28T14:23:33;1.20;99.90
12123;DHT22;6125;59.628;17.852;2023-12-28T14:26:02;1.30;99.90
12123;DHT22;6125;59.628;17.852;2023-12-28T14:28:31;1.20;99.90
12123;DHT22;6125;59.628;17.852;2023-12-28T14:31:00;1.20;99.90
12123;DHT22;6125;59.628;17.852;2023-12-28T14:33:29;1.20;99.90
12123;DHT22;6125;59.628;17.852;2023-12-28T14:35:58;1.20;99.90
12123;DHT22;6125;59.628;17.852;2023-12-28T14:38:25;1.30;99.90
12123;DHT22;6125;59.628;17.852;2023-12-28T14:40:53;1.30;99.90
12123;DHT22;6125;59.628;17.852;2023-12-28T14:43:21;1.30;99.90
12123;DHT22;6125;59.628;17.852;2023-12-28T14:45:50;1.30;99.90
12123;DHT22;6125;59.628;17.852;2023-12-28T14:48:18;1.30;99.90
12123;DHT22;6125;59.628;17.852;2023-12-28T14:50:47;1.30;99.90
12123;DHT22;6125;59.628;17.852;2023-12-28T14:53:15;1.30;99.90
12123;DHT22;6125;59.628;17.852;2023-12-28T14:55:43;1.30;99.90
12123;DHT22;6125;59.628;17.852;2023-12-28T14:58:11;1.30;99.90
12123;DHT22;6125;59.628;17.852;2023-12-28T15:00:38;1.30;99.90
12123;DHT22;6125;59.628;17.852;2023-12-28T15:03:05;1.30;99.90
12123;DHT22;6125;59.628;17.852;2023-12-28T15:05:33;1.30;99.90
12123;DHT22;6125;59.628;17.852;2023-12-28T15:08:01;1.30;99.90
12123;DHT22;6125;59.628;17.852;2023-12-28T15:10:29;1.30;99.90
12123;DHT22;6125;59.628;17.852;2023-12-28T15:12:57;1.30;99.90
12123;DHT22;6125;59.628;17.852;2023-12-28T15:15:25;1.40;99.90
12123;DHT22;6125;59.628;17.852;2023-12-28T15:17:53;1.40;99.90
12123;DHT22;6125;59.628;17.852;2023-12-28T15:20:21;1.40;99.90
12123;DHT22;6125;59.628;17.852;2023-12-28T15:22:49;1.40;99.90
12123;DHT22;6125;59.628;17.852;2023-12-28T15:25:17;1.40;99.90
12123;DHT22;6125;59.628;17.852;2023-12-28T15:27:45;1.40;99.90
12123;DHT22;6125;59.628;17.852;2023-12-28T15:30:13;1.50;99.90
12123;DHT22;6125;59.628;17.852;2023-12-28T15:32:40;1.50;99.90
12123;DHT22;6125;59.628;17.852;2023-12-28T15:35:12;1.50;99.90
12123;DHT22;6125;59.628;17.852;2023-12-28T15:37:39;1.40;99.90
12123;DHT22;6125;59.628;17.852;2023-12-28T15:40:07;1.40;99.90
12123;DHT22;6125;59.628;17.852;2023-12-28T15:42:37;1.50;99.90